createdAt,value
2019-04-01T00:01:46.960Z,10.80
2019-04-01T00:04:20.399Z,10.80
2019-04-01T00:06:53.824Z,10.70
2019-04-01T00:09:27.259Z,10.70
2019-04-01T00:12:00.687Z,10.60
2019-04-01T00:14:34.119Z,10.60
2019-04-01T00:17:07.549Z,10.60
2019-04-01T00:19:40.989Z,10.60
2019-04-01T00:22:14.412Z,10.60
2019-04-01T00:24:47.852Z,10.60
2019-04-01T00:27:21.282Z,10.60
2019-04-01T00:29:54.720Z,10.60
2019-04-01T00:32:28.139Z,10.60
2019-04-01T00:35:01.580Z,10.60
2019-04-01T00:37:35.011Z,10.60
2019-04-01T00:40:08.589Z,10.60
2019-04-01T00:43:00.068Z,10.60
2019-04-01T00:45:35.144Z,10.60
2019-04-01T00:48:08.572Z,10.50
2019-04-01T00:50:42.037Z,10.50
2019-04-01T00:53:17.978Z,10.50
2019-04-01T00:55:50.641Z,10.50
2019-04-01T00:58:24.084Z,10.40
2019-04-01T01:00:57.606Z,10.40
2019-04-01T01:03:31.035Z,10.40
2019-04-01T01:06:04.483Z,10.40
2019-04-01T01:08:37.919Z,10.40
2019-04-01T01:11:11.363Z,10.30
2019-04-01T01:13:44.808Z,10.30
2019-04-01T01:16:18.256Z,10.20
2019-04-01T01:18:51.692Z,10.20
2019-04-01T01:21:25.149Z,10.20
2019-04-01T01:23:58.593Z,10.10
2019-04-01T01:26:32.027Z,10.10
2019-04-01T01:29:05.461Z,10.10
2019-04-01T01:31:38.910Z,10.00
2019-04-01T01:34:12.328Z,10.00
2019-04-01T01:36:45.755Z,10.00
2019-04-01T01:39:19.187Z,10.00
2019-04-01T01:41:52.619Z,10.00
2019-04-01T01:44:26.051Z,10.00
2019-04-01T01:46:59.559Z,10.00
2019-04-01T01:49:32.997Z,10.00
2019-04-01T01:52:06.419Z,9.90
2019-04-01T01:54:39.846Z,9.90
2019-04-01T01:57:13.272Z,9.90
2019-04-01T01:59:46.707Z,9.80
2019-04-01T02:02:20.123Z,9.80
2019-04-01T02:04:53.565Z,9.80
2019-04-01T02:07:26.982Z,9.70
2019-04-01T02:10:00.496Z,9.70
2019-04-01T02:12:33.911Z,9.70
2019-04-01T02:15:08.089Z,9.70
2019-04-01T02:17:41.501Z,9.70
2019-04-01T02:20:14.938Z,9.70
2019-04-01T02:22:48.351Z,9.70
2019-04-01T02:25:21.785Z,9.70
2019-04-01T02:27:55.199Z,9.70
2019-04-01T02:30:28.633Z,9.60
2019-04-01T02:33:02.077Z,9.60
2019-04-01T02:35:35.568Z,9.60
2019-04-01T02:38:08.992Z,9.60
2019-04-01T02:40:42.424Z,9.60
2019-04-01T02:43:15.846Z,9.60
2019-04-01T02:45:49.356Z,9.60
2019-04-01T02:48:22.781Z,9.60
2019-04-01T02:50:56.297Z,9.60
2019-04-01T02:53:29.760Z,9.50
2019-04-01T02:56:03.202Z,9.50
2019-04-01T02:58:36.604Z,9.50
2019-04-01T03:01:10.035Z,9.40
2019-04-01T03:03:43.453Z,9.40
2019-04-01T03:06:16.889Z,9.30
2019-04-01T03:08:50.309Z,9.20
2019-04-01T03:11:23.751Z,9.20
2019-04-01T03:13:57.160Z,9.20
2019-04-01T03:16:30.600Z,9.10
2019-04-01T03:19:04.025Z,9.10
2019-04-01T03:21:37.456Z,9.10
2019-04-01T03:24:10.872Z,9.10
2019-04-01T03:26:44.311Z,9.10
2019-04-01T03:29:17.731Z,9.10
2019-04-01T03:31:51.160Z,9.00
2019-04-01T03:34:24.576Z,9.00
2019-04-01T03:36:58.007Z,9.00
2019-04-01T03:39:31.431Z,9.00
2019-04-01T03:42:04.928Z,9.00
2019-04-01T03:44:38.354Z,9.00
2019-04-01T03:47:11.782Z,9.00
2019-04-01T03:49:45.214Z,9.00
2019-04-01T03:52:18.636Z,8.90
2019-04-01T03:54:52.050Z,8.90
2019-04-01T03:57:25.471Z,8.90
2019-04-01T03:59:58.883Z,8.80
2019-04-01T04:02:32.339Z,8.90
2019-04-01T04:05:06.683Z,8.90
2019-04-01T04:07:40.112Z,8.80
2019-04-01T04:10:13.537Z,8.80
2019-04-01T04:12:46.978Z,8.80
2019-04-01T04:15:20.408Z,8.80
2019-04-01T04:17:53.841Z,8.80
2019-04-01T04:20:27.253Z,8.80
2019-04-01T04:23:00.704Z,8.70
2019-04-01T04:25:34.197Z,8.70
2019-04-01T04:28:07.713Z,8.60
2019-04-01T04:30:41.188Z,8.60
2019-04-01T04:33:14.629Z,8.60
2019-04-01T04:35:48.065Z,8.50
2019-04-01T04:38:21.534Z,8.50
2019-04-01T04:40:55.072Z,8.50
2019-04-01T04:43:28.491Z,8.50
2019-04-01T04:46:02.037Z,8.50
2019-04-01T04:48:35.483Z,8.50
2019-04-01T04:51:08.923Z,8.40
2019-04-01T04:53:42.344Z,8.40
2019-04-01T04:56:15.776Z,8.40
2019-04-01T04:58:49.215Z,8.40
2019-04-01T05:01:22.635Z,8.40
2019-04-01T05:03:56.061Z,8.40
2019-04-01T05:06:29.505Z,8.40
2019-04-01T05:09:04.553Z,8.40
2019-04-01T05:11:38.003Z,8.40
2019-04-01T05:14:11.491Z,8.40
2019-04-01T05:16:44.928Z,8.40
2019-04-01T05:19:18.359Z,8.40
2019-04-01T05:21:52.817Z,8.40
2019-04-01T05:24:27.636Z,8.40
2019-04-01T05:27:03.090Z,8.40
2019-04-01T05:29:38.431Z,8.50
2019-04-01T05:32:13.005Z,8.50
2019-04-01T05:34:48.527Z,8.40
2019-04-01T05:37:21.981Z,8.40
2019-04-01T05:39:55.400Z,8.40
2019-04-01T05:42:29.069Z,8.40
2019-04-01T05:45:02.494Z,8.50
2019-04-01T05:47:37.632Z,8.50
2019-04-01T05:50:11.126Z,8.50
2019-04-01T05:52:44.624Z,8.60
2019-04-01T05:55:18.128Z,8.60
2019-04-01T05:57:51.580Z,8.70
2019-04-01T06:00:29.584Z,8.70
2019-04-01T06:03:03.057Z,8.70
2019-04-01T06:05:36.479Z,8.80
2019-04-01T06:08:09.910Z,8.90
2019-04-01T06:10:43.324Z,9.00
2019-04-01T06:13:16.830Z,9.10
2019-04-01T06:15:50.243Z,9.20
2019-04-01T06:18:23.680Z,9.30
2019-04-01T06:20:57.095Z,9.40
2019-04-01T06:23:30.543Z,9.40
2019-04-01T06:26:04.261Z,9.50
2019-04-01T06:28:37.812Z,9.60
2019-04-01T06:31:11.363Z,9.70
2019-04-01T06:33:44.792Z,9.80
2019-04-01T06:36:18.579Z,9.90
2019-04-01T06:38:52.015Z,10.00
2019-04-01T06:41:25.437Z,10.00
2019-04-01T06:43:58.884Z,10.10
2019-04-01T06:46:32.377Z,10.20
2019-04-01T06:49:05.808Z,10.30
2019-04-01T06:51:39.244Z,10.30
2019-04-01T06:54:12.735Z,10.40
2019-04-01T06:56:46.163Z,10.40
2019-04-01T06:59:19.667Z,10.50
2019-04-01T07:01:53.175Z,10.50
2019-04-01T07:04:26.610Z,10.50
2019-04-01T07:07:00.130Z,10.60
2019-04-01T07:09:33.695Z,10.50
2019-04-01T07:12:07.188Z,10.50
2019-04-01T07:14:40.689Z,10.40
2019-04-01T07:17:14.107Z,10.50
2019-04-01T07:19:47.539Z,10.50
2019-04-01T07:22:21.394Z,10.50
2019-04-01T07:24:54.831Z,10.60
2019-04-01T07:27:28.261Z,10.70
2019-04-01T07:30:01.696Z,10.70
2019-04-01T07:32:35.135Z,10.70
2019-04-01T07:35:09.100Z,10.70
2019-04-01T07:37:42.612Z,10.80
2019-04-01T07:40:16.027Z,10.80
2019-04-01T07:42:49.452Z,10.90
2019-04-01T07:45:22.870Z,11.00
2019-04-01T07:47:56.300Z,11.00
2019-04-01T07:50:29.729Z,11.10
2019-04-01T07:53:03.251Z,11.20
2019-04-01T07:55:37.145Z,11.20
2019-04-01T07:58:10.653Z,11.20
2019-04-01T08:00:44.088Z,11.20
2019-04-01T08:03:17.521Z,11.30
2019-04-01T08:05:51.486Z,11.30
2019-04-01T08:08:24.912Z,11.40
2019-04-01T08:10:58.399Z,11.40
2019-04-01T08:13:31.908Z,11.60
2019-04-01T08:16:05.409Z,11.60
2019-04-01T08:18:38.993Z,11.70
2019-04-01T08:21:12.482Z,11.80
2019-04-01T08:23:46.081Z,11.90
2019-04-01T08:26:19.547Z,11.90
2019-04-01T08:28:52.975Z,11.90
2019-04-01T08:31:26.479Z,11.90
2019-04-01T08:33:59.913Z,12.00
2019-04-01T08:36:33.671Z,12.00
2019-04-01T08:39:10.275Z,12.00
2019-04-01T08:41:44.260Z,12.00
2019-04-01T08:44:18.124Z,12.10
2019-04-01T08:46:51.623Z,12.20
2019-04-01T08:49:25.223Z,12.30
2019-04-01T08:51:58.656Z,12.40
2019-04-01T08:54:33.060Z,12.40
2019-04-01T08:57:06.556Z,12.40
2019-04-01T08:59:39.992Z,12.50
2019-04-01T09:02:18.142Z,12.60
2019-04-01T09:04:48.647Z,12.60
2019-04-01T09:07:22.088Z,12.70
2019-04-01T09:09:57.378Z,12.80
2019-04-01T09:12:30.836Z,12.80
2019-04-01T09:15:05.461Z,12.80
2019-04-01T09:17:40.478Z,12.90
2019-04-01T09:20:14.130Z,12.90
2019-04-01T09:22:47.628Z,13.00
2019-04-01T09:25:21.063Z,13.10
2019-04-01T09:27:54.507Z,13.20
2019-04-01T09:30:27.953Z,13.20
2019-04-01T09:33:01.376Z,13.30
2019-04-01T09:35:34.816Z,13.30
2019-04-01T09:38:08.245Z,13.40
2019-04-01T09:40:41.761Z,13.50
2019-04-01T09:43:15.189Z,13.50
2019-04-01T09:45:48.631Z,13.60
2019-04-01T09:48:23.620Z,13.60
2019-04-01T09:50:57.210Z,13.60
2019-04-01T09:53:30.704Z,13.70
2019-04-01T09:56:04.140Z,13.80
2019-04-01T09:58:37.579Z,13.80
2019-04-01T10:01:11.023Z,13.90
2019-04-01T10:03:44.535Z,13.90
2019-04-01T10:06:17.971Z,13.90
2019-04-01T10:08:51.400Z,13.90
2019-04-01T10:11:24.835Z,14.00
2019-04-01T10:13:58.248Z,14.00
2019-04-01T10:16:31.688Z,14.10
2019-04-01T10:19:05.187Z,14.20
2019-04-01T10:21:38.629Z,14.30
2019-04-01T10:24:12.073Z,14.40
2019-04-01T10:26:45.564Z,14.50
2019-04-01T10:29:19.008Z,14.60
2019-04-01T10:31:52.427Z,14.70
2019-04-01T10:34:25.860Z,14.80
2019-04-01T10:36:59.289Z,14.80
2019-04-01T10:39:32.788Z,14.80
2019-04-01T10:42:06.292Z,14.90
2019-04-01T10:44:39.729Z,14.90
2019-04-01T10:47:13.210Z,15.00
2019-04-01T10:49:46.799Z,15.10
2019-04-01T10:52:20.335Z,15.10
2019-04-01T10:54:53.912Z,15.10
2019-04-01T10:57:27.397Z,15.20
2019-04-01T11:00:00.916Z,15.10
2019-04-01T11:02:34.506Z,15.20
2019-04-01T11:05:08.973Z,15.20
2019-04-01T11:07:42.378Z,15.40
2019-04-01T11:10:15.807Z,15.50
2019-04-01T11:12:49.229Z,15.50
2019-04-01T11:15:22.677Z,15.60
2019-04-01T11:17:56.094Z,15.70
2019-04-01T11:20:29.532Z,15.70
2019-04-01T11:23:04.804Z,15.80
2019-04-01T11:25:38.129Z,15.80
2019-04-01T11:28:11.616Z,15.90
2019-04-01T11:30:45.083Z,15.90
2019-04-01T11:33:18.601Z,15.90
2019-04-01T11:35:52.195Z,16.00
2019-04-01T11:38:26.024Z,16.10
2019-04-01T11:40:59.554Z,16.20
2019-04-01T11:43:35.573Z,16.20
2019-04-01T11:46:08.240Z,16.30
2019-04-01T11:48:41.716Z,16.40
2019-04-01T11:51:15.312Z,16.40
2019-04-01T11:53:48.831Z,16.50
2019-04-01T11:56:26.285Z,16.60
2019-04-01T11:58:57.792Z,16.60
2019-04-01T12:01:31.228Z,16.70
2019-04-01T12:04:04.660Z,16.80
2019-04-01T12:06:38.088Z,16.80
2019-04-01T12:09:11.516Z,16.90
2019-04-01T12:11:44.951Z,17.00
2019-04-01T12:14:18.392Z,17.10
2019-04-01T12:16:51.968Z,17.20
2019-04-01T12:19:25.393Z,17.30
2019-04-01T12:21:58.833Z,17.40
2019-04-01T12:24:32.251Z,17.40
2019-04-01T12:27:05.694Z,17.50
2019-04-01T12:29:39.601Z,17.50
2019-04-01T12:32:13.100Z,17.50
2019-04-01T12:34:46.837Z,17.60
2019-04-01T12:37:20.707Z,17.70
2019-04-01T12:39:54.141Z,17.80
2019-04-01T12:42:27.571Z,17.80
2019-04-01T12:45:01.000Z,17.90
2019-04-01T12:47:34.699Z,18.00
2019-04-01T12:50:08.255Z,18.00
2019-04-01T12:52:41.692Z,18.00
2019-04-01T12:55:15.575Z,18.10
2019-04-01T12:57:50.752Z,18.10
2019-04-01T13:00:24.564Z,18.20
2019-04-01T13:02:58.000Z,18.40
2019-04-01T13:05:31.421Z,18.40
2019-04-01T13:08:04.943Z,18.40
2019-04-01T13:10:38.395Z,18.40
2019-04-01T13:13:13.101Z,18.50
2019-04-01T13:15:46.816Z,18.50
2019-04-01T13:18:20.256Z,18.60
2019-04-01T13:20:53.703Z,18.70
2019-04-01T13:23:27.210Z,18.70
2019-04-01T13:26:00.717Z,18.70
2019-04-01T13:28:34.140Z,18.70
2019-04-01T13:31:07.647Z,18.70
2019-04-01T13:33:41.071Z,18.80
2019-04-01T13:36:14.507Z,19.00
2019-04-01T13:38:47.942Z,19.00
2019-04-01T13:41:24.969Z,19.10
2019-04-01T13:43:56.603Z,19.10
2019-04-01T13:46:30.048Z,19.20
2019-04-01T13:49:04.454Z,19.30
2019-04-01T13:51:38.509Z,19.40
2019-04-01T13:54:12.101Z,19.40
2019-04-01T13:56:45.609Z,19.50
2019-04-01T13:59:19.033Z,19.60
2019-04-01T14:01:52.476Z,19.80
2019-04-01T14:04:27.375Z,20.00
2019-04-01T14:07:01.023Z,20.30
2019-04-01T14:09:34.469Z,21.00
2019-04-01T14:12:07.931Z,22.00
2019-04-01T14:14:41.345Z,22.80
2019-04-01T14:17:14.787Z,23.30
2019-04-01T14:19:48.234Z,23.80
